createdAt,value
2017-04-24T00:00:35.431Z,3.60
2017-04-24T00:01:35.872Z,3.70
2017-04-24T00:02:36.351Z,3.70
2017-04-24T00:03:35.538Z,3.70
2017-04-24T00:04:34.700Z,3.60
2017-04-24T00:05:33.874Z,3.60
2017-04-24T00:06:33.228Z,3.60
2017-04-24T00:07:32.390Z,3.70
2017-04-24T00:08:31.558Z,3.60
2017-04-24T00:09:31.175Z,3.70
2017-04-24T00:10:37.647Z,3.70
2017-04-24T00:11:36.877Z,3.70
2017-04-24T00:12:36.766Z,3.70
2017-04-24T00:13:36.803Z,3.70
2017-04-24T00:14:36.051Z,3.70
2017-04-24T00:15:35.262Z,3.70
2017-04-24T00:16:35.222Z,3.60
2017-04-24T00:17:34.522Z,3.60
2017-04-24T00:18:33.742Z,3.60
2017-04-24T00:19:32.905Z,3.60
2017-04-24T00:20:32.089Z,3.60
2017-04-24T00:21:31.217Z,3.70
2017-04-24T00:22:31.115Z,3.60
2017-04-24T00:23:30.260Z,3.70
2017-04-24T00:24:29.371Z,3.60
2017-04-24T00:25:28.510Z,3.60
2017-04-24T00:26:27.682Z,3.60
2017-04-24T00:27:26.834Z,3.60
2017-04-24T00:28:26.015Z,3.70
2017-04-24T00:29:25.188Z,3.60
2017-04-24T00:30:24.794Z,3.60
2017-04-24T00:31:23.938Z,3.60
2017-04-24T00:32:23.128Z,3.60
2017-04-24T00:33:22.271Z,3.60
2017-04-24T00:34:21.414Z,3.60
2017-04-24T00:35:21.635Z,3.70
2017-04-24T00:36:20.789Z,3.60
2017-04-24T00:37:19.974Z,3.60
2017-04-24T00:38:19.331Z,3.60
2017-04-24T00:39:18.519Z,3.60
2017-04-24T00:40:19.160Z,3.60
2017-04-24T00:41:19.082Z,3.60
2017-04-24T00:42:18.270Z,3.60
2017-04-24T00:43:18.293Z,3.60
2017-04-24T00:44:17.566Z,3.60
2017-04-24T00:45:17.103Z,3.60
2017-04-24T00:46:16.307Z,3.60
2017-04-24T00:47:15.828Z,3.60
2017-04-24T00:48:14.991Z,3.60
2017-04-24T00:49:14.134Z,3.60
2017-04-24T00:50:13.475Z,3.60
2017-04-24T00:51:12.585Z,3.60
2017-04-24T00:52:12.474Z,3.60
2017-04-24T00:53:12.359Z,3.50
2017-04-24T00:54:11.507Z,3.50
2017-04-24T00:55:10.698Z,3.50
2017-04-24T00:56:09.874Z,3.50
2017-04-24T00:57:09.019Z,3.50
2017-04-24T00:58:08.149Z,3.50
2017-04-24T00:59:07.295Z,3.50
2017-04-24T01:00:06.475Z,3.40
2017-04-24T01:02:05.085Z,3.40
2017-04-24T01:03:05.014Z,3.40
2017-04-24T01:04:04.169Z,3.40
2017-04-24T01:05:03.294Z,3.40
2017-04-24T01:06:02.498Z,3.40
2017-04-24T01:07:01.684Z,3.40
2017-04-24T01:08:00.950Z,3.40
2017-04-24T01:09:00.118Z,3.40
2017-04-24T01:09:59.991Z,3.40
2017-04-24T01:10:59.134Z,3.40
2017-04-24T01:11:58.285Z,3.40
2017-04-24T01:12:57.547Z,3.40
2017-04-24T01:13:56.950Z,3.40
2017-04-24T01:14:56.096Z,3.40
2017-04-24T01:15:55.259Z,3.40
2017-04-24T01:16:54.382Z,3.40
2017-04-24T01:17:53.510Z,3.40
2017-04-24T01:18:53.407Z,3.40
2017-04-24T01:19:52.888Z,3.40
2017-04-24T01:20:52.027Z,3.40
2017-04-24T01:21:51.145Z,3.40
2017-04-24T01:22:50.306Z,3.40
2017-04-24T01:23:49.447Z,3.40
2017-04-24T01:24:48.578Z,3.40
2017-04-24T01:25:47.823Z,3.40
2017-04-24T01:26:46.953Z,3.40
2017-04-24T01:27:46.089Z,3.40
2017-04-24T01:28:45.215Z,3.40
2017-04-24T01:29:44.366Z,3.40
2017-04-24T01:30:43.498Z,3.40
2017-04-24T01:31:42.722Z,3.40
2017-04-24T01:32:41.854Z,3.40
2017-04-24T01:33:40.991Z,3.40
2017-04-24T01:34:40.138Z,3.40
2017-04-24T01:35:39.485Z,3.40
2017-04-24T01:36:38.638Z,3.40
2017-04-24T01:37:37.803Z,3.40
2017-04-24T01:38:36.942Z,3.40
2017-04-24T01:39:36.081Z,3.40
2017-04-24T01:40:35.219Z,3.40
2017-04-24T01:41:34.402Z,3.40
2017-04-24T01:42:33.718Z,3.40
2017-04-24T01:43:33.584Z,3.40
2017-04-24T01:44:32.707Z,3.40
2017-04-24T01:45:32.591Z,3.40
2017-04-24T01:46:31.755Z,3.40
2017-04-24T01:47:30.950Z,3.40
2017-04-24T01:48:30.068Z,3.40
2017-04-24T01:49:29.168Z,3.40
2017-04-24T01:50:29.029Z,3.40
2017-04-24T01:51:28.173Z,3.40
2017-04-24T01:52:27.291Z,3.40
2017-04-24T01:53:26.488Z,3.40
2017-04-24T01:54:25.692Z,3.40
2017-04-24T01:55:24.815Z,3.40
2017-04-24T01:56:23.929Z,3.40
2017-04-24T01:57:23.324Z,3.50
2017-04-24T01:58:22.457Z,3.40
2017-04-24T01:59:21.568Z,3.50
2017-04-24T02:00:20.718Z,3.50
2017-04-24T02:01:19.825Z,3.40
2017-04-24T02:02:20.465Z,3.50
2017-04-24T02:03:19.609Z,3.40
2017-04-24T02:04:18.749Z,3.50
2017-04-24T02:05:17.895Z,3.50
2017-04-24T02:06:17.042Z,3.50
2017-04-24T02:07:16.152Z,3.50
2017-04-24T02:08:15.279Z,3.50
2017-04-24T02:09:14.516Z,3.50
2017-04-24T02:10:13.633Z,3.50
2017-04-24T02:11:13.544Z,3.50
2017-04-24T02:12:12.665Z,3.50
2017-04-24T02:13:11.817Z,3.50
2017-04-24T02:14:11.770Z,3.60
2017-04-24T02:15:10.921Z,3.60
2017-04-24T02:16:10.792Z,3.60
2017-04-24T02:17:09.922Z,3.60
2017-04-24T02:18:09.044Z,3.60
2017-04-24T02:19:08.161Z,3.60
2017-04-24T02:20:07.273Z,3.60
2017-04-24T02:21:06.444Z,3.60
2017-04-24T02:22:06.310Z,3.60
2017-04-24T02:23:05.418Z,3.60
2017-04-24T02:24:04.528Z,3.60
2017-04-24T02:25:04.396Z,3.60
2017-04-24T02:26:03.507Z,3.60
2017-04-24T02:27:03.481Z,3.60
2017-04-24T02:28:02.607Z,3.70
2017-04-24T02:29:02.484Z,3.70
2017-04-24T02:30:01.589Z,3.70
2017-04-24T02:31:01.443Z,3.60
2017-04-24T02:32:00.563Z,3.70
2017-04-24T02:32:59.845Z,3.70
2017-04-24T02:33:58.977Z,3.70
2017-04-24T02:34:58.098Z,3.70
2017-04-24T02:35:57.212Z,3.70
2017-04-24T02:36:56.326Z,3.70
2017-04-24T02:37:56.197Z,3.70
2017-04-24T02:38:55.359Z,3.70
2017-04-24T02:39:54.500Z,3.70
2017-04-24T02:40:54.373Z,3.70
2017-04-24T02:41:53.472Z,3.70
2017-04-24T02:42:52.604Z,3.80
2017-04-24T02:43:51.729Z,3.80
2017-04-24T02:44:50.924Z,3.80
2017-04-24T02:45:50.032Z,3.80
2017-04-24T02:46:49.888Z,3.70
2017-04-24T02:47:49.002Z,3.80
2017-04-24T02:48:48.874Z,3.80
2017-04-24T02:49:48.025Z,3.80
2017-04-24T02:50:47.177Z,3.80
2017-04-24T02:51:46.285Z,3.70
2017-04-24T02:52:46.141Z,3.70
2017-04-24T02:53:45.304Z,3.80
2017-04-24T02:54:44.445Z,3.70
2017-04-24T02:55:43.561Z,3.80
2017-04-24T02:56:43.452Z,3.70
2017-04-24T02:57:43.301Z,3.70
2017-04-24T02:58:42.460Z,3.80
2017-04-24T02:59:41.600Z,3.80
2017-04-24T03:00:40.728Z,3.80
2017-04-24T03:01:39.879Z,3.80
2017-04-24T03:02:39.076Z,3.80
2017-04-24T03:03:38.204Z,3.80
2017-04-24T03:04:37.392Z,3.80
2017-04-24T03:05:36.513Z,3.80
2017-04-24T03:06:35.629Z,3.80
2017-04-24T03:07:34.745Z,3.80
2017-04-24T03:08:34.086Z,3.80
2017-04-24T03:09:33.204Z,3.80
2017-04-24T03:10:33.069Z,3.80
2017-04-24T03:11:32.188Z,3.80
2017-04-24T03:12:32.055Z,3.80
2017-04-24T03:13:31.161Z,3.80
2017-04-24T03:14:30.752Z,3.80
2017-04-24T03:15:29.892Z,3.80
2017-04-24T03:16:29.000Z,3.80
2017-04-24T03:17:28.122Z,3.80
2017-04-24T03:18:27.224Z,3.80
2017-04-24T03:19:27.089Z,3.70
2017-04-24T03:20:26.270Z,3.80
2017-04-24T03:21:25.392Z,3.80
2017-04-24T03:22:25.253Z,3.80
2017-04-24T03:23:24.365Z,3.80
2017-04-24T03:24:23.533Z,3.80
2017-04-24T03:25:22.640Z,3.80
2017-04-24T03:26:22.025Z,3.80
2017-04-24T03:27:21.160Z,3.80
2017-04-24T03:28:20.273Z,3.80
2017-04-24T03:29:19.388Z,3.80
2017-04-24T03:30:18.500Z,3.80
2017-04-24T03:31:18.429Z,3.80
2017-04-24T03:32:17.852Z,3.80
2017-04-24T03:33:16.973Z,3.80
2017-04-24T03:34:16.106Z,3.90
2017-04-24T03:35:15.242Z,3.80
2017-04-24T03:36:14.360Z,3.80
2017-04-24T03:37:13.472Z,3.90
2017-04-24T03:38:12.638Z,3.80
2017-04-24T03:39:11.761Z,3.90
2017-04-24T03:40:10.878Z,3.90
2017-04-24T03:41:10.210Z,3.80
2017-04-24T03:42:09.495Z,3.80
2017-04-24T03:43:08.627Z,3.80
2017-04-24T03:44:07.809Z,3.80
2017-04-24T03:45:06.925Z,3.80
2017-04-24T03:46:06.821Z,3.80
2017-04-24T03:47:05.928Z,3.80
2017-04-24T03:48:05.793Z,3.80
2017-04-24T03:49:04.904Z,3.80
2017-04-24T03:51:03.513Z,3.80
2017-04-24T03:52:02.653Z,3.80
2017-04-24T03:53:01.765Z,3.80
2017-04-24T03:54:01.620Z,3.80
2017-04-24T03:55:00.724Z,3.80
2017-04-24T03:55:59.882Z,3.80
2017-04-24T03:56:58.991Z,3.80
2017-04-24T03:57:58.108Z,3.80
2017-04-24T03:58:58.054Z,3.80
2017-04-24T03:59:57.551Z,3.80
2017-04-24T04:00:56.693Z,3.80
2017-04-24T04:01:57.214Z,3.80
2017-04-24T04:02:57.117Z,3.80
2017-04-24T04:03:57.009Z,3.80
2017-04-24T04:04:56.157Z,3.80
2017-04-24T04:05:55.320Z,3.80
2017-04-24T04:06:54.468Z,3.80
2017-04-24T04:08:53.089Z,3.80
2017-04-24T04:09:52.288Z,3.80
2017-04-24T04:10:51.439Z,3.80
2017-04-24T04:11:51.325Z,3.80
2017-04-24T04:12:50.475Z,3.80
2017-04-24T04:13:49.659Z,3.80
2017-04-24T04:14:48.812Z,3.80
2017-04-24T04:15:48.697Z,3.80
2017-04-24T04:16:47.840Z,3.80
2017-04-24T04:17:46.985Z,3.80
2017-04-24T04:18:46.877Z,3.80
2017-04-24T04:19:46.056Z,3.80
2017-04-24T04:20:45.205Z,3.80
2017-04-24T04:21:44.344Z,3.90
2017-04-24T04:22:43.476Z,3.90
2017-04-24T04:23:42.616Z,3.90
2017-04-24T04:24:41.761Z,3.90
2017-04-24T04:25:40.954Z,3.90
2017-04-24T04:26:40.104Z,3.90
2017-04-24T04:27:39.249Z,3.90
2017-04-24T04:28:38.389Z,3.90
2017-04-24T04:29:37.530Z,3.90
2017-04-24T04:30:36.675Z,3.90
2017-04-24T04:31:35.864Z,3.90
2017-04-24T04:32:35.021Z,3.90
2017-04-24T04:33:34.185Z,4.00
2017-04-24T04:34:33.329Z,3.90
2017-04-24T04:35:32.480Z,4.00
2017-04-24T04:36:32.408Z,4.00
2017-04-24T04:37:31.656Z,4.00
2017-04-24T04:38:30.801Z,4.00
2017-04-24T04:39:29.951Z,4.00
2017-04-24T04:40:29.100Z,4.00
2017-04-24T04:41:28.245Z,4.00
2017-04-24T04:42:27.400Z,4.10
2017-04-24T04:43:27.338Z,4.10
2017-04-24T04:44:26.504Z,4.00
2017-04-24T04:45:25.664Z,4.10
2017-04-24T04:46:24.796Z,4.10
2017-04-24T04:47:23.960Z,4.10
2017-04-24T04:48:23.846Z,4.10
2017-04-24T04:49:23.428Z,4.10
2017-04-24T04:50:22.568Z,4.10
2017-04-24T04:51:21.717Z,4.20
2017-04-24T04:52:20.867Z,4.10
2017-04-24T04:53:20.004Z,4.20
2017-04-24T04:54:19.886Z,4.20
2017-04-24T04:55:19.048Z,4.30
2017-04-24T04:56:18.155Z,4.30
2017-04-24T04:57:17.288Z,4.30
2017-04-24T04:58:16.404Z,4.30
2017-04-24T04:59:15.517Z,4.30
2017-04-24T05:00:14.635Z,4.30
2017-04-24T05:01:13.814Z,4.30
2017-04-24T05:02:13.672Z,4.30
2017-04-24T05:03:12.801Z,4.30
2017-04-24T05:04:12.662Z,4.30
2017-04-24T05:05:11.789Z,4.40
2017-04-24T05:06:10.913Z,4.40
2017-04-24T05:07:10.246Z,4.40
2017-04-24T05:08:09.356Z,4.40
2017-04-24T05:09:09.237Z,4.50
2017-04-24T05:10:08.398Z,4.50
2017-04-24T05:11:07.532Z,4.50
2017-04-24T05:12:07.392Z,4.50
2017-04-24T05:13:06.544Z,4.50
2017-04-24T05:14:05.660Z,4.50
2017-04-24T05:15:04.805Z,4.60
2017-04-24T05:16:03.917Z,4.60
2017-04-24T05:17:03.029Z,4.60
2017-04-24T05:18:02.136Z,4.60
2017-04-24T05:19:02.435Z,4.70
2017-04-24T05:20:01.549Z,4.70
2017-04-24T05:21:01.432Z,4.70
2017-04-24T05:22:00.569Z,4.70
2017-04-24T05:22:59.692Z,4.80
2017-04-24T05:23:58.829Z,4.80
2017-04-24T05:24:58.737Z,4.80
2017-04-24T05:25:57.855Z,4.80
2017-04-24T05:26:56.969Z,4.80
2017-04-24T05:27:56.097Z,5.00
2017-04-24T05:28:55.225Z,4.90
2017-04-24T05:29:54.352Z,4.90
2017-04-24T05:30:54.637Z,5.00
2017-04-24T05:31:53.756Z,5.00
2017-04-24T05:32:53.622Z,5.00
2017-04-24T05:33:52.739Z,5.10
2017-04-24T05:34:52.612Z,5.10
2017-04-24T05:35:51.731Z,5.10
2017-04-24T05:36:51.664Z,5.10
2017-04-24T05:37:50.789Z,5.20
2017-04-24T05:38:49.913Z,5.20
2017-04-24T05:39:49.785Z,5.20
2017-04-24T05:40:48.926Z,5.30
2017-04-24T05:41:48.064Z,5.30
2017-04-24T05:42:47.225Z,5.30
2017-04-24T05:43:46.356Z,5.30
2017-04-24T05:44:46.240Z,5.40
2017-04-24T05:45:45.353Z,5.40
2017-04-24T05:46:45.233Z,5.50
2017-04-24T05:47:44.346Z,5.50
2017-04-24T05:48:44.298Z,5.50
2017-04-24T05:49:43.404Z,5.50
2017-04-24T05:50:42.507Z,5.60
2017-04-24T05:51:41.657Z,5.60
2017-04-24T05:52:40.784Z,5.60
2017-04-24T05:53:39.908Z,5.60
2017-04-24T05:54:39.448Z,5.70
2017-04-24T05:55:38.604Z,5.70
2017-04-24T05:56:37.764Z,5.80
2017-04-24T05:57:36.933Z,5.80
2017-04-24T05:58:36.828Z,5.80
2017-04-24T05:59:35.981Z,5.90
2017-04-24T06:00:35.285Z,5.90
2017-04-24T06:01:34.433Z,5.90
2017-04-24T06:02:33.584Z,5.90
2017-04-24T06:03:33.483Z,5.90
2017-04-24T06:04:32.635Z,6.00
2017-04-24T06:05:31.857Z,6.00
2017-04-24T06:06:31.240Z,6.00
2017-04-24T06:07:30.392Z,6.00
2017-04-24T06:08:29.541Z,6.10
2017-04-24T06:09:29.457Z,6.10
2017-04-24T06:10:28.616Z,6.10
2017-04-24T06:11:27.786Z,6.20
2017-04-24T06:12:26.980Z,6.20
2017-04-24T06:13:26.122Z,6.20
2017-04-24T06:14:25.269Z,6.30
2017-04-24T06:15:25.196Z,6.20
2017-04-24T06:16:25.085Z,6.30
2017-04-24T06:17:24.239Z,6.30
2017-04-24T06:18:23.593Z,6.40
2017-04-24T06:19:22.737Z,6.40
2017-04-24T06:20:21.881Z,6.50
2017-04-24T06:21:21.016Z,6.50
2017-04-24T06:22:20.153Z,6.50
2017-04-24T06:23:19.305Z,6.50
2017-04-24T06:24:19.237Z,6.50
2017-04-24T06:25:18.411Z,6.60
2017-04-24T06:26:17.568Z,6.70
2017-04-24T06:27:17.098Z,6.70
2017-04-24T06:28:16.251Z,6.70
2017-04-24T06:29:15.418Z,6.80
2017-04-24T06:30:14.564Z,6.80
2017-04-24T06:31:13.698Z,6.80
2017-04-24T06:32:12.849Z,6.90
2017-04-24T06:33:12.044Z,6.90
2017-04-24T06:34:11.221Z,6.90
2017-04-24T06:35:10.364Z,7.00
2017-04-24T06:36:10.276Z,7.00
2017-04-24T06:37:10.167Z,7.10
2017-04-24T06:38:09.333Z,7.20
2017-04-24T06:39:08.735Z,7.20
2017-04-24T06:40:07.879Z,7.20
2017-04-24T06:41:07.024Z,7.30
2017-04-24T06:42:06.181Z,7.30
2017-04-24T06:43:05.337Z,7.30
2017-04-24T06:44:04.496Z,7.40
2017-04-24T06:45:04.469Z,7.40
2017-04-24T06:46:03.628Z,7.50
2017-04-24T06:47:02.760Z,7.50
2017-04-24T06:48:01.897Z,7.60
2017-04-24T06:49:01.068Z,7.70
2017-04-24T06:50:00.205Z,7.80
2017-04-24T06:50:59.493Z,7.90
2017-04-24T06:51:59.408Z,8.00
2017-04-24T06:52:58.558Z,8.00
2017-04-24T06:53:57.719Z,8.20
2017-04-24T06:54:56.894Z,8.20
2017-04-24T06:55:56.751Z,8.30
2017-04-24T06:56:55.989Z,8.50
2017-04-24T06:57:55.109Z,8.50
2017-04-24T06:58:54.296Z,8.60
2017-04-24T06:59:53.405Z,8.70
2017-04-24T07:00:52.517Z,8.80
2017-04-24T07:01:51.723Z,8.90
2017-04-24T07:03:00.913Z,8.90
2017-04-24T07:04:00.045Z,9.00
2017-04-24T07:04:59.154Z,9.00
2017-04-24T07:05:58.284Z,9.00
2017-04-24T07:06:57.401Z,9.00
2017-04-24T07:07:56.521Z,9.10
2017-04-24T07:08:55.745Z,9.10
2017-04-24T07:09:55.300Z,9.10
2017-04-24T07:10:54.429Z,9.10
2017-04-24T07:11:53.537Z,9.10
2017-04-24T07:12:53.390Z,9.10
2017-04-24T07:13:52.524Z,9.10
2017-04-24T07:14:52.456Z,9.10
2017-04-24T07:15:51.565Z,9.10
2017-04-24T07:16:50.697Z,9.10
2017-04-24T07:17:50.941Z,9.10
2017-04-24T07:18:50.124Z,9.10
2017-04-24T07:19:49.240Z,9.10
2017-04-24T07:20:48.404Z,9.00
2017-04-24T07:21:47.548Z,9.00
2017-04-24T07:22:46.682Z,9.00
2017-04-24T07:23:45.809Z,9.00
2017-04-24T07:24:44.931Z,9.00
2017-04-24T07:25:44.061Z,9.10
2017-04-24T07:26:43.205Z,9.00
2017-04-24T07:27:42.331Z,9.10
2017-04-24T07:28:41.471Z,9.00
2017-04-24T07:29:41.333Z,9.10
2017-04-24T07:30:40.453Z,9.10
2017-04-24T07:31:40.312Z,9.10
2017-04-24T07:32:39.728Z,9.20
2017-04-24T07:33:38.865Z,9.20
2017-04-24T07:34:37.998Z,9.20
2017-04-24T07:35:37.109Z,9.20
2017-04-24T07:36:36.970Z,9.30
2017-04-24T07:37:36.100Z,9.30
2017-04-24T07:38:35.975Z,9.40
2017-04-24T07:39:35.102Z,9.40
2017-04-24T07:40:34.960Z,9.50
2017-04-24T07:41:34.145Z,9.50
2017-04-24T07:42:33.348Z,9.50
2017-04-24T07:43:32.460Z,9.60
2017-04-24T07:44:32.496Z,9.60
2017-04-24T07:45:31.645Z,9.70
2017-04-24T07:46:30.761Z,9.80
2017-04-24T07:47:29.897Z,9.90
2017-04-24T07:48:29.016Z,10.00
2017-04-24T07:49:28.885Z,10.10
2017-04-24T07:50:28.044Z,10.20
2017-04-24T07:51:27.158Z,10.20
2017-04-24T07:52:26.272Z,10.30
2017-04-24T07:53:26.165Z,10.30
2017-04-24T07:54:25.293Z,10.40
2017-04-24T07:55:24.424Z,10.50
2017-04-24T07:56:23.710Z,10.60
2017-04-24T07:57:22.821Z,10.60
2017-04-24T07:58:22.693Z,10.60
2017-04-24T07:59:21.808Z,10.60
2017-04-24T08:00:21.721Z,10.70
2017-04-24T08:01:21.584Z,10.80
2017-04-24T08:02:21.602Z,10.90
2017-04-24T08:03:20.737Z,10.90
2017-04-24T08:04:19.860Z,11.00
2017-04-24T08:05:18.973Z,11.10
2017-04-24T08:06:18.076Z,11.10
2017-04-24T08:07:17.936Z,11.10
2017-04-24T08:08:17.113Z,11.20
2017-04-24T08:09:16.266Z,11.10
2017-04-24T08:10:15.385Z,11.20
2017-04-24T08:11:14.512Z,11.20
2017-04-24T08:12:13.661Z,11.30
2017-04-24T08:13:12.773Z,11.20
2017-04-24T08:14:12.217Z,11.30
2017-04-24T08:15:11.360Z,11.30
2017-04-24T08:16:10.479Z,11.30
2017-04-24T08:17:09.621Z,11.30
2017-04-24T08:18:08.760Z,11.30
2017-04-24T08:19:07.898Z,11.30
2017-04-24T08:20:07.289Z,11.30
2017-04-24T08:21:06.420Z,11.30
2017-04-24T08:22:05.548Z,11.30
2017-04-24T08:23:04.752Z,11.40
2017-04-24T08:24:03.865Z,11.50
2017-04-24T08:25:03.737Z,11.50
2017-04-24T08:26:02.909Z,11.50
2017-04-24T08:27:02.028Z,11.50
2017-04-24T08:28:01.157Z,11.50
2017-04-24T08:29:00.281Z,11.50
2017-04-24T08:29:59.404Z,11.60
2017-04-24T08:30:59.281Z,11.50
2017-04-24T08:31:59.081Z,11.60
2017-04-24T08:32:58.218Z,11.70
2017-04-24T08:33:57.361Z,11.80
2017-04-24T08:34:56.484Z,11.90
2017-04-24T08:35:55.604Z,11.90
2017-04-24T08:36:54.724Z,11.90
2017-04-24T08:37:54.109Z,12.00
2017-04-24T08:38:53.237Z,12.00
2017-04-24T08:39:52.356Z,12.00
2017-04-24T08:40:51.489Z,12.00
2017-04-24T08:41:51.356Z,11.90
2017-04-24T08:42:50.475Z,12.00
2017-04-24T08:43:50.398Z,12.00
2017-04-24T08:44:49.524Z,12.00
2017-04-24T08:45:48.653Z,11.90
2017-04-24T08:46:48.516Z,11.90
2017-04-24T08:47:47.626Z,12.00
2017-04-24T08:48:46.749Z,12.00
2017-04-24T08:49:45.941Z,12.00
2017-04-24T08:50:45.073Z,12.00
2017-04-24T08:51:44.185Z,12.10
2017-04-24T08:52:43.306Z,12.00
2017-04-24T08:53:42.448Z,12.00
2017-04-24T08:54:41.553Z,12.00
2017-04-24T08:55:41.636Z,12.10
2017-04-24T08:56:40.785Z,12.20
2017-04-24T08:57:39.948Z,12.20
2017-04-24T08:58:39.817Z,12.10
2017-04-24T08:59:38.952Z,12.20
2017-04-24T09:00:38.065Z,12.20
2017-04-24T09:01:37.234Z,12.20
2017-04-24T09:02:36.365Z,12.30
2017-04-24T09:03:35.497Z,12.30
2017-04-24T09:04:34.615Z,12.40
2017-04-24T09:05:34.045Z,12.50
2017-04-24T09:06:33.157Z,12.50
2017-04-24T09:07:32.317Z,12.40
2017-04-24T09:08:31.429Z,12.40
2017-04-24T09:09:30.548Z,12.40
2017-04-24T09:10:29.673Z,12.40
2017-04-24T09:11:28.788Z,12.40
2017-04-24T09:12:28.666Z,12.40
2017-04-24T09:13:27.837Z,12.40
2017-04-24T09:14:26.985Z,12.40
2017-04-24T09:15:26.120Z,12.40
2017-04-24T09:16:25.225Z,12.40
2017-04-24T09:17:25.082Z,12.30
2017-04-24T09:18:24.218Z,12.40
2017-04-24T09:19:24.257Z,12.30
2017-04-24T09:20:23.371Z,12.30
2017-04-24T09:21:22.494Z,12.40
2017-04-24T09:22:22.367Z,12.40
2017-04-24T09:23:21.479Z,12.50
2017-04-24T09:24:21.361Z,12.50
2017-04-24T09:25:20.516Z,12.60
2017-04-24T09:26:19.644Z,12.60
2017-04-24T09:27:18.757Z,12.60
2017-04-24T09:28:18.656Z,12.60
2017-04-24T09:29:18.515Z,12.50
2017-04-24T09:30:17.626Z,12.50
2017-04-24T09:31:16.788Z,12.60
2017-04-24T09:32:15.898Z,12.60
2017-04-24T09:33:15.000Z,12.60
2017-04-24T09:34:14.866Z,12.60
2017-04-24T09:35:13.972Z,12.60
2017-04-24T09:36:13.078Z,12.60
2017-04-24T09:37:12.996Z,12.60
2017-04-24T09:38:12.114Z,12.70
2017-04-24T09:39:11.233Z,12.70
2017-04-24T09:40:10.357Z,12.70
2017-04-24T09:41:09.484Z,12.80
2017-04-24T09:42:08.608Z,12.90
2017-04-24T09:43:08.590Z,12.90
2017-04-24T09:44:07.704Z,12.80
2017-04-24T09:45:07.557Z,12.80
2017-04-24T09:46:06.689Z,12.80
2017-04-24T09:47:06.536Z,12.80
2017-04-24T09:48:05.653Z,12.80
2017-04-24T09:49:04.949Z,12.80
2017-04-24T09:50:04.057Z,12.90
2017-04-24T09:51:03.921Z,12.90
2017-04-24T09:52:03.047Z,12.90
2017-04-24T09:53:03.000Z,12.90
2017-04-24T09:54:02.144Z,12.90
2017-04-24T09:55:02.420Z,12.90
2017-04-24T09:56:01.564Z,12.90
2017-04-24T09:57:00.696Z,13.00
2017-04-24T09:57:59.861Z,12.90
2017-04-24T09:58:59.004Z,12.90
2017-04-24T09:59:58.899Z,12.90
2017-04-24T10:00:58.904Z,12.90
2017-04-24T10:01:58.052Z,12.90
2017-04-24T10:02:57.205Z,13.00
2017-04-24T10:03:56.353Z,13.00
2017-04-24T10:04:55.492Z,13.10
2017-04-24T10:05:54.636Z,13.10
2017-04-24T10:06:53.775Z,13.10
2017-04-24T10:07:52.914Z,13.30
2017-04-24T10:08:53.017Z,13.30
2017-04-24T10:09:52.309Z,13.40
2017-04-24T10:10:52.369Z,13.50
2017-04-24T10:11:51.608Z,13.70
2017-04-24T10:12:50.733Z,13.80
2017-04-24T10:13:49.845Z,13.90
2017-04-24T10:14:48.964Z,13.90
2017-04-24T10:15:48.076Z,13.90
2017-04-24T10:16:47.400Z,14.00
2017-04-24T10:17:46.527Z,13.90
2017-04-24T10:18:45.646Z,13.90
2017-04-24T10:19:44.737Z,13.90
2017-04-24T10:20:43.852Z,13.90
2017-04-24T10:21:43.158Z,13.80
2017-04-24T10:22:42.265Z,13.70
2017-04-24T10:23:41.377Z,13.60
2017-04-24T10:24:40.493Z,13.50
2017-04-24T10:25:39.657Z,13.50
2017-04-24T10:26:38.785Z,13.50
2017-04-24T10:27:38.077Z,13.50
2017-04-24T10:28:37.196Z,13.40
2017-04-24T10:29:37.040Z,13.40
2017-04-24T10:30:36.149Z,13.40
2017-04-24T10:31:35.265Z,13.50
2017-04-24T10:32:34.387Z,13.50
2017-04-24T10:33:34.077Z,13.50
2017-04-24T10:34:33.332Z,13.50
2017-04-24T10:35:32.655Z,13.60
2017-04-24T10:36:31.765Z,13.70
2017-04-24T10:37:30.910Z,13.80
2017-04-24T10:38:30.765Z,13.80
2017-04-24T10:39:29.920Z,13.80
2017-04-24T10:40:29.045Z,13.80
2017-04-24T10:41:28.159Z,13.90
2017-04-24T10:42:27.273Z,13.80
2017-04-24T10:43:26.395Z,13.80
2017-04-24T10:44:25.540Z,13.80
2017-04-24T10:45:24.704Z,13.70
2017-04-24T10:46:23.823Z,13.60
2017-04-24T10:47:22.944Z,13.50
2017-04-24T10:48:22.060Z,13.40
2017-04-24T10:49:21.162Z,13.40
2017-04-24T10:50:21.016Z,13.40
2017-04-24T10:51:20.393Z,13.40
2017-04-24T10:52:19.512Z,13.40
2017-04-24T10:53:18.620Z,13.30
2017-04-24T10:54:18.508Z,13.40
2017-04-24T10:55:17.625Z,13.40
2017-04-24T10:56:17.476Z,13.40
2017-04-24T10:57:16.633Z,13.50
2017-04-24T10:58:15.821Z,13.40
2017-04-24T10:59:14.936Z,13.40
2017-04-24T11:00:14.085Z,13.50
2017-04-24T11:01:13.940Z,13.50
2017-04-24T11:02:13.084Z,13.60
2017-04-24T11:03:12.427Z,13.70
2017-04-24T11:04:12.277Z,13.60
2017-04-24T11:05:12.415Z,13.70
2017-04-24T11:06:12.294Z,13.70
2017-04-24T11:07:12.488Z,13.70
2017-04-24T11:08:12.405Z,13.80
2017-04-24T11:09:12.528Z,13.80
2017-04-24T11:10:13.225Z,13.80
2017-04-24T11:11:14.530Z,13.80
2017-04-24T11:12:15.875Z,13.80
2017-04-24T11:13:16.587Z,13.80
2017-04-24T11:14:18.251Z,13.90
2017-04-24T11:15:19.166Z,13.90
2017-04-24T11:16:19.942Z,13.90
2017-04-24T11:17:19.826Z,14.00
2017-04-24T11:18:20.535Z,14.00
2017-04-24T11:20:21.347Z,14.10
2017-04-24T11:21:21.291Z,14.10
2017-04-24T11:22:21.292Z,14.10
2017-04-24T11:23:22.120Z,14.20
2017-04-24T11:24:22.249Z,14.30
2017-04-24T11:25:22.207Z,14.30
2017-04-24T11:26:23.487Z,14.30
2017-04-24T11:27:25.997Z,14.40
2017-04-24T11:28:26.690Z,14.50
2017-04-24T11:29:26.692Z,14.50
2017-04-24T11:30:28.730Z,14.60
2017-04-24T11:31:29.170Z,14.70
2017-04-24T11:32:28.428Z,14.60
2017-04-24T11:34:27.956Z,14.70
2017-04-24T11:35:27.092Z,14.70
2017-04-24T11:36:26.228Z,14.50
2017-04-24T11:37:25.443Z,14.50
2017-04-24T11:38:24.710Z,14.50
2017-04-24T11:39:23.907Z,14.40
2017-04-24T11:40:23.057Z,14.20
2017-04-24T11:41:22.958Z,14.20
2017-04-24T11:42:22.849Z,14.20
2017-04-24T11:43:22.004Z,14.20
2017-04-24T11:44:21.199Z,14.20
2017-04-24T11:45:20.384Z,14.20
2017-04-24T11:46:19.589Z,14.10
2017-04-24T11:47:18.775Z,14.20
2017-04-24T11:48:17.966Z,14.20
2017-04-24T11:49:17.138Z,14.20
2017-04-24T11:50:17.873Z,14.30
2017-04-24T11:51:17.005Z,14.30
2017-04-24T11:52:16.145Z,14.40
2017-04-24T11:53:15.265Z,14.40
2017-04-24T11:54:15.134Z,14.40
2017-04-24T11:55:14.283Z,14.40
2017-04-24T11:56:13.616Z,14.50
2017-04-24T11:57:12.745Z,14.40
2017-04-24T11:58:11.878Z,14.40
2017-04-24T11:59:11.018Z,14.40
2017-04-24T12:00:10.148Z,14.50
2017-04-24T12:01:09.298Z,14.60
2017-04-24T12:02:08.487Z,14.60
2017-04-24T12:03:07.616Z,14.70
2017-04-24T12:04:06.732Z,14.80
2017-04-24T12:05:06.592Z,14.90
2017-04-24T12:06:05.748Z,14.90
2017-04-24T12:07:05.196Z,15.10
2017-04-24T12:08:04.347Z,15.20
2017-04-24T12:09:03.588Z,15.20
2017-04-24T12:10:03.461Z,15.30
2017-04-24T12:11:02.585Z,15.40
2017-04-24T12:12:02.489Z,15.50
2017-04-24T12:13:02.568Z,15.50
2017-04-24T12:14:01.863Z,15.50
2017-04-24T12:15:00.981Z,15.40
2017-04-24T12:16:00.828Z,15.40
2017-04-24T12:16:59.956Z,15.40
2017-04-24T12:17:59.075Z,15.50
2017-04-24T12:18:58.215Z,15.50
2017-04-24T12:19:57.338Z,15.60
2017-04-24T12:20:56.451Z,15.60
2017-04-24T12:21:55.566Z,15.60
2017-04-24T12:22:54.677Z,15.70
2017-04-24T12:23:54.875Z,15.60
2017-04-24T12:24:54.036Z,15.60
2017-04-24T12:25:53.145Z,15.60
2017-04-24T12:26:52.262Z,15.60
2017-04-24T12:27:52.129Z,15.60
2017-04-24T12:28:51.277Z,15.60
2017-04-24T12:29:50.401Z,15.60
2017-04-24T12:30:49.564Z,15.60
2017-04-24T12:31:52.904Z,15.50
2017-04-24T12:32:52.753Z,15.50
2017-04-24T12:33:51.928Z,15.50
2017-04-24T12:34:51.058Z,15.40
2017-04-24T12:35:50.204Z,15.40
2017-04-24T12:36:49.332Z,15.50
2017-04-24T12:37:48.454Z,15.50
2017-04-24T12:38:47.553Z,15.50
2017-04-24T12:39:46.673Z,15.50
2017-04-24T12:40:45.872Z,15.60
2017-04-24T12:41:45.069Z,15.60
2017-04-24T12:42:44.209Z,15.60
2017-04-24T12:43:43.394Z,15.70
2017-04-24T12:44:42.516Z,15.70
2017-04-24T12:45:41.705Z,15.70
2017-04-24T12:46:40.840Z,15.70
2017-04-24T12:47:40.042Z,15.80
2017-04-24T12:48:39.165Z,15.80
2017-04-24T12:49:38.280Z,15.80
2017-04-24T12:50:38.216Z,15.80
2017-04-24T12:51:37.381Z,15.90
2017-04-24T12:52:37.277Z,16.00
2017-04-24T12:53:37.561Z,15.90
2017-04-24T12:54:36.713Z,15.90
2017-04-24T12:55:35.877Z,15.90
2017-04-24T12:56:35.835Z,15.90
2017-04-24T12:57:36.436Z,16.00
2017-04-24T12:58:35.589Z,15.90
2017-04-24T12:59:36.685Z,16.00
2017-04-24T13:00:35.865Z,16.00
2017-04-24T13:01:35.036Z,15.90
2017-04-24T13:02:34.202Z,15.90
2017-04-24T13:03:33.356Z,15.90
2017-04-24T13:04:33.254Z,15.90